Time;durP1;ratioP1;P1;durP2;ratioP2;P2;SDS_P1;SDS_P2;PMS_P1;PMS_P2;Temp;Humidity;BMP_temperature;BMP_pressure;BME280_temperature;BME280_humidity;BME280_pressure;Samples;Min_cycle;Max_cycle;Signal;HPM_P1;HPM_P2
2023/12/26 00:01:34;;;;;;;0.68;0.40;;;9.50;99.90;;;;;;5019075;28;20416;-72
2023/12/26 00:04:00;;;;;;;0.35;0.20;;;9.50;99.90;;;;;;4999574;28;20061;-72
2023/12/26 00:06:25;;;;;;;0.52;0.35;;;9.50;99.90;;;;;;4982421;28;20042;-72
2023/12/26 00:08:51;;;;;;;1.23;0.60;;;9.50;99.90;;;;;;4984701;28;20054;-72
2023/12/26 00:11:17;;;;;;;1.77;0.93;;;9.50;99.90;;;;;;5037338;28;20046;-72
2023/12/26 00:13:42;;;;;;;4.45;0.82;;;9.60;99.90;;;;;;4989950;28;20390;-72
2023/12/26 00:16:08;;;;;;;4.00;0.70;;;9.60;99.90;;;;;;5024481;28;20096;-72
2023/12/26 00:18:33;;;;;;;2.15;0.30;;;9.60;99.90;;;;;;4983676;28;20132;-72
2023/12/26 00:20:59;;;;;;;2.90;1.15;;;9.60;99.90;;;;;;4985144;28;20133;-72
2023/12/26 00:23:25;;;;;;;2.15;0.98;;;9.60;99.90;;;;;;4985891;28;20030;-72
2023/12/26 00:25:50;;;;;;;7.43;1.30;;;9.60;99.90;;;;;;4992492;28;20423;-72
2023/12/26 00:28:19;;;;;;;4.78;0.73;;;9.60;99.90;;;;;;5035105;28;20049;-72
2023/12/26 00:30:45;;;;;;;3.30;0.95;;;9.50;99.90;;;;;;4999936;28;20101;-72
2023/12/26 00:33:11;;;;;;;3.78;0.60;;;9.60;99.90;;;;;;4998744;28;20130;-72
2023/12/26 00:35:36;;;;;;;4.50;1.45;;;9.50;99.90;;;;;;4996601;28;20132;-72
2023/12/26 00:38:02;;;;;;;4.03;1.45;;;9.50;99.90;;;;;;4998334;28;20125;-72
2023/12/26 00:40:28;;;;;;;5.65;1.30;;;9.50;99.90;;;;;;4978331;28;20034;-72
2023/12/26 00:42:54;;;;;;;2.88;0.98;;;9.50;99.90;;;;;;4985894;28;20524;-72
2023/12/26 00:45:22;;;;;;;2.05;1.00;;;9.50;99.90;;;;;;4990149;28;20482;-72
2023/12/26 00:47:48;;;;;;;3.50;0.65;;;9.50;99.90;;;;;;4986218;28;20050;-72
2023/12/26 00:50:16;;;;;;;6.72;1.35;;;9.50;99.90;;;;;;4995397;28;20108;-72
2023/12/26 00:52:42;;;;;;;1.70;0.80;;;9.50;99.90;;;;;;4984631;28;20515;-72
2023/12/26 00:55:08;;;;;;;6.25;1.20;;;9.50;99.90;;;;;;4993998;28;20033;-72
2023/12/26 00:57:34;;;;;;;2.20;0.70;;;9.40;99.90;;;;;;4996133;28;20050;-72
2023/12/26 01:00:00;;;;;;;5.38;1.00;;;9.50;99.90;;;;;;4990993;28;20116;-72
2023/12/26 01:02:26;;;;;;;3.65;0.63;;;9.40;99.90;;;;;;4985557;28;20088;-72
2023/12/26 01:04:52;;;;;;;3.67;1.00;;;9.40;99.90;;;;;;4991205;28;20411;-72
2023/12/26 01:07:17;;;;;;;1.85;0.93;;;9.40;99.90;;;;;;4983787;28;20061;-72
2023/12/26 01:09:43;;;;;;;4.38;1.38;;;9.40;99.90;;;;;;4990155;28;20412;-72
2023/12/26 01:12:10;;;;;;;5.15;1.00;;;9.40;99.90;;;;;;4992279;28;20042;-72
2023/12/26 01:14:35;;;;;;;2.78;1.02;;;9.30;99.90;;;;;;4994046;28;20530;-72
2023/12/26 01:17:01;;;;;;;1.13;0.77;;;9.30;99.90;;;;;;4989009;28;20038;-72
2023/12/26 01:19:27;;;;;;;3.95;1.17;;;9.30;99.90;;;;;;4971323;28;20489;-72
2023/12/26 01:21:53;;;;;;;2.65;1.92;;;9.30;99.90;;;;;;4998502;28;20125;-72
2023/12/26 01:24:18;;;;;;;5.15;1.42;;;9.30;99.90;;;;;;5032583;28;20046;-72
2023/12/26 01:26:44;;;;;;;1.85;0.98;;;9.30;99.90;;;;;;4995079;28;20050;-72
2023/12/26 01:29:10;;;;;;;10.20;1.95;;;9.30;99.90;;;;;;4990353;28;20046;-72
2023/12/26 01:31:36;;;;;;;7.93;1.23;;;9.30;99.90;;;;;;4987671;28;20184;-72
2023/12/26 01:34:03;;;;;;;4.43;0.90;;;9.30;99.90;;;;;;4990727;28;20038;-72
2023/12/26 01:36:28;;;;;;;5.88;1.17;;;9.30;99.90;;;;;;4985203;28;20035;-72
2023/12/26 01:38:54;;;;;;;7.20;1.50;;;9.30;99.90;;;;;;4984649;28;20132;-72
2023/12/26 01:41:20;;;;;;;5.28;1.50;;;9.30;99.90;;;;;;4986477;28;20561;-72
2023/12/26 01:43:46;;;;;;;1.50;0.93;;;9.30;99.90;;;;;;4991965;28;20053;-72
2023/12/26 01:46:12;;;;;;;3.42;2.25;;;9.30;99.90;;;;;;4985930;28;20047;-72
2023/12/26 01:48:39;;;;;;;2.78;1.40;;;9.30;99.90;;;;;;4987782;28;20042;-72
2023/12/26 01:51:08;;;;;;;3.28;1.15;;;9.30;99.90;;;;;;4967532;28;20047;-72
2023/12/26 01:53:38;;;;;;;2.88;0.95;;;9.30;99.90;;;;;;4988872;28;20051;-73
2023/12/26 01:56:10;;;;;;;6.13;1.15;;;9.30;99.90;;;;;;4983738;28;20046;-72
2023/12/26 01:58:37;;;;;;;9.57;1.95;;;9.30;99.90;;;;;;4986988;28;20145;-72
2023/12/26 02:01:04;;;;;;;8.60;1.92;;;9.30;99.90;;;;;;4999437;28;20440;-72
2023/12/26 02:03:30;;;;;;;7.40;1.70;;;9.30;99.90;;;;;;4993287;28;20038;-72
2023/12/26 02:05:57;;;;;;;2.67;1.00;;;9.30;99.90;;;;;;4982920;28;20043;-72
2023/12/26 02:10:53;;;;;;;4.53;1.15;;;9.20;99.90;;;;;;4961953;28;20081;-72
2023/12/26 02:13:20;;;;;;;4.97;1.30;;;9.20;99.90;;;;;;4965457;28;20031;-72
2023/12/26 02:15:52;;;;;;;5.38;1.17;;;9.20;99.90;;;;;;4980197;28;20066;-72
2023/12/26 02:18:18;;;;;;;2.50;0.93;;;9.10;99.90;;;;;;4965073;28;20190;-72
2023/12/26 02:20:44;;;;;;;4.95;1.73;;;9.20;99.90;;;;;;4949176;28;20070;-72
2023/12/26 02:23:09;;;;;;;4.22;0.95;;;9.10;99.90;;;;;;4968346;28;20133;-72
2023/12/26 02:25:35;;;;;;;1.83;0.70;;;9.10;99.90;;;;;;4983794;28;20058;-72
2023/12/26 02:28:03;;;;;;;5.22;1.45;;;9.10;99.90;;;;;;4968324;28;20046;-72
2023/12/26 02:30:30;;;;;;;5.45;1.45;;;9.10;99.90;;;;;;4967256;28;20057;-72
2023/12/26 02:32:56;;;;;;;6.95;0.95;;;9.10;99.90;;;;;;4967724;28;20046;-72
2023/12/26 02:35:23;;;;;;;0.68;0.57;;;9.10;99.90;;;;;;4950211;28;20051;-72
2023/12/26 02:37:49;;;;;;;4.90;1.35;;;9.10;99.90;;;;;;4968179;28;20057;-72
2023/12/26 02:40:15;;;;;;;0.88;0.70;;;9.00;99.90;;;;;;4951499;28;20050;-72
2023/12/26 02:42:41;;;;;;;7.95;1.23;;;9.00;99.90;;;;;;4983616;28;20512;-72
2023/12/26 02:45:08;;;;;;;1.90;0.68;;;9.00;99.90;;;;;;4967319;28;20125;-72
2023/12/26 02:47:33;;;;;;;2.30;0.77;;;9.00;99.90;;;;;;4982841;28;20101;-72
2023/12/26 02:49:59;;;;;;;2.70;0.85;;;9.00;99.90;;;;;;4966594;28;20051;-72
2023/12/26 02:52:24;;;;;;;3.67;1.70;;;8.90;99.90;;;;;;4967530;28;20452;-72
2023/12/26 02:54:50;;;;;;;6.40;0.95;;;8.90;99.90;;;;;;4950414;28;20051;-73
2023/12/26 02:57:16;;;;;;;4.63;1.65;;;8.90;99.90;;;;;;4968421;28;20701;-72
2023/12/26 02:59:41;;;;;;;2.95;1.27;;;8.90;99.90;;;;;;4950709;28;20465;-72
2023/12/26 03:02:07;;;;;;;1.25;0.50;;;8.90;99.90;;;;;;4982781;28;20146;-72
2023/12/26 03:04:32;;;;;;;2.88;0.98;;;8.80;99.90;;;;;;4967850;28;20122;-72
2023/12/26 03:06:58;;;;;;;3.08;1.25;;;8.70;99.90;;;;;;4960968;28;20043;-72
2023/12/26 03:09:24;;;;;;;4.95;1.42;;;8.70;99.90;;;;;;4966811;28;20070;-72
2023/12/26 03:11:50;;;;;;;4.38;1.13;;;8.70;99.90;;;;;;4950131;28;20055;-72
2023/12/26 03:14:16;;;;;;;0.85;0.80;;;8.70;99.90;;;;;;4967789;28;20617;-72
2023/12/26 03:16:42;;;;;;;2.25;1.38;;;8.60;99.90;;;;;;4966342;28;20046;-72
2023/12/26 03:19:07;;;;;;;3.10;1.40;;;8.60;99.90;;;;;;4949709;28;20060;-72
2023/12/26 03:21:33;;;;;;;2.92;1.58;;;8.60;99.90;;;;;;4949010;28;20043;-72
2023/12/26 03:23:59;;;;;;;3.33;0.75;;;8.50;99.90;;;;;;4949454;28;20043;-71
2023/12/26 03:26:24;;;;;;;3.17;1.27;;;8.50;99.90;;;;;;4967855;28;20053;-72
2023/12/26 03:28:50;;;;;;;2.85;1.02;;;8.50;99.90;;;;;;4966743;28;20412;-73
2023/12/26 03:31:16;;;;;;;3.67;1.25;;;8.50;99.90;;;;;;4966525;28;20050;-72
2023/12/26 03:33:41;;;;;;;1.67;1.20;;;8.40;99.90;;;;;;4982181;28;20089;-72
2023/12/26 03:36:08;;;;;;;7.70;1.35;;;8.40;99.90;;;;;;4980871;28;20266;-72
2023/12/26 03:38:35;;;;;;;4.03;1.85;;;8.40;99.90;;;;;;4982151;28;20043;-72
2023/12/26 03:41:01;;;;;;;10.70;2.58;;;8.30;99.90;;;;;;4967073;28;20050;-72
2023/12/26 03:43:26;;;;;;;4.47;1.30;;;8.30;99.90;;;;;;4966912;28;20084;-72
2023/12/26 03:45:52;;;;;;;1.85;1.35;;;8.30;99.90;;;;;;4949290;28;20096;-73
2023/12/26 03:48:18;;;;;;;9.02;1.88;;;8.30;99.90;;;;;;4982878;28;20543;-72
2023/12/26 03:50:43;;;;;;;6.47;1.70;;;8.20;99.90;;;;;;4964978;28;20181;-72
2023/12/26 03:53:09;;;;;;;4.93;1.40;;;8.30;99.90;;;;;;4981302;28;20081;-72
2023/12/26 03:55:35;;;;;;;3.95;0.90;;;8.20;99.90;;;;;;4949858;28;20051;-72
2023/12/26 03:58:01;;;;;;;2.53;0.95;;;8.20;99.90;;;;;;4966631;28;20046;-72
2023/12/26 04:00:29;;;;;;;1.67;0.90;;;8.20;99.90;;;;;;4949284;28;20046;-72
2023/12/26 04:02:55;;;;;;;2.50;1.50;;;8.20;99.90;;;;;;4966865;28;20050;-72
2023/12/26 04:05:21;;;;;;;5.95;1.38;;;8.20;99.90;;;;;;4966358;28;20781;-72
2023/12/26 04:07:47;;;;;;;3.33;1.63;;;8.10;99.90;;;;;;4981867;28;20046;-71
2023/12/26 04:10:13;;;;;;;10.32;3.33;;;8.10;99.90;;;;;;4965704;28;20106;-72
2023/12/26 04:12:40;;;;;;;4.53;1.25;;;8.20;99.90;;;;;;4965482;28;20186;-72
2023/12/26 04:15:06;;;;;;;6.25;1.30;;;8.10;99.90;;;;;;4966618;28;20127;-72
2023/12/26 04:17:32;;;;;;;3.08;1.48;;;8.10;99.90;;;;;;4949297;28;20047;-72
2023/12/26 04:19:58;;;;;;;3.97;1.77;;;8.10;99.90;;;;;;4966073;28;20131;-72
2023/12/26 04:22:24;;;;;;;3.10;1.77;;;8.10;99.90;;;;;;4965849;28;20118;-72
2023/12/26 04:24:49;;;;;;;4.28;1.75;;;8.10;99.90;;;;;;4949502;28;20051;-72
2023/12/26 04:27:15;;;;;;;5.85;2.58;;;8.00;99.90;;;;;;4966450;28;20118;-72
2023/12/26 04:29:41;;;;;;;2.55;0.93;;;8.00;99.90;;;;;;4966311;28;20571;-72
2023/12/26 04:32:06;;;;;;;5.78;1.35;;;8.00;99.90;;;;;;4980969;28;20379;-72
2023/12/26 04:34:32;;;;;;;5.15;2.03;;;8.10;99.90;;;;;;4966065;28;20039;-72
2023/12/26 04:36:57;;;;;;;2.33;1.75;;;8.10;99.90;;;;;;4980060;28;20064;-73
2023/12/26 04:39:23;;;;;;;7.38;2.72;;;8.10;99.90;;;;;;4965051;28;20071;-71
2023/12/26 04:41:49;;;;;;;3.83;1.25;;;8.10;99.90;;;;;;4947574;28;20078;-72
2023/12/26 04:44:15;;;;;;;2.30;2.10;;;8.00;99.90;;;;;;4965376;28;20046;-72
2023/12/26 04:46:40;;;;;;;1.05;0.77;;;8.10;99.90;;;;;;4965159;28;20200;-72
2023/12/26 04:49:06;;;;;;;2.42;1.33;;;8.00;99.90;;;;;;4947875;28;20045;-72
2023/12/26 04:51:32;;;;;;;2.60;1.25;;;8.00;99.90;;;;;;4947334;28;20467;-72
2023/12/26 04:53:58;;;;;;;2.05;1.10;;;8.00;99.90;;;;;;4947817;28;20058;-72
2023/12/26 04:56:24;;;;;;;2.85;1.02;;;8.00;99.90;;;;;;4980211;28;20643;-72
2023/12/26 04:58:51;;;;;;;5.97;1.60;;;8.00;99.90;;;;;;4948043;28;20394;-72
2023/12/26 05:01:18;;;;;;;2.63;1.00;;;8.10;99.90;;;;;;4948575;28;20701;-72
2023/12/26 05:03:48;;;;;;;2.45;1.13;;;8.10;99.90;;;;;;4980001;28;20047;-72
2023/12/26 05:06:18;;;;;;;2.17;1.20;;;8.20;99.90;;;;;;4946778;28;20077;-72
2023/12/26 05:08:44;;;;;;;2.38;0.85;;;8.20;99.90;;;;;;4979951;28;20071;-72
2023/12/26 05:11:23;;;;;;;4.43;1.55;;;8.20;99.90;;;;;;4947448;28;20097;-72
2023/12/26 05:13:50;;;;;;;6.35;1.95;;;8.20;99.90;;;;;;4972890;28;20584;-72
2023/12/26 05:16:17;;;;;;;1.70;1.02;;;8.20;99.90;;;;;;4932499;28;20039;-72
2023/12/26 05:18:42;;;;;;;3.35;1.45;;;8.20;99.90;;;;;;4947483;28;20031;-72
2023/12/26 05:21:20;;;;;;;8.00;1.63;;;8.20;99.90;;;;;;4964087;28;20122;-72
2023/12/26 05:23:46;;;;;;;3.05;2.03;;;8.30;99.90;;;;;;4965715;28;20043;-72
2023/12/26 05:26:13;;;;;;;1.52;1.00;;;8.30;99.90;;;;;;4979989;28;20469;-72
2023/12/26 05:28:38;;;;;;;3.35;1.63;;;8.30;99.90;;;;;;4947451;28;20054;-72
2023/12/26 05:31:04;;;;;;;3.45;1.55;;;8.30;99.90;;;;;;4947663;28;20039;-72
2023/12/26 05:33:30;;;;;;;4.03;1.77;;;8.30;99.90;;;;;;4980199;28;20070;-72
2023/12/26 05:35:56;;;;;;;7.75;1.92;;;8.30;99.90;;;;;;4963825;28;20043;-72
2023/12/26 05:38:22;;;;;;;5.90;1.50;;;8.30;99.90;;;;;;4947117;28;20054;-73
2023/12/26 05:40:48;;;;;;;2.97;0.98;;;8.30;99.90;;;;;;4965335;28;20062;-72
2023/12/26 05:43:13;;;;;;;3.00;1.70;;;8.30;99.90;;;;;;4947589;28;20077;-72
2023/12/26 05:45:39;;;;;;;1.83;1.02;;;8.30;99.90;;;;;;4980164;28;20053;-72
2023/12/26 05:48:06;;;;;;;4.43;1.23;;;8.40;99.90;;;;;;4979247;28;20057;-72
2023/12/26 05:50:32;;;;;;;1.92;0.90;;;8.40;99.90;;;;;;4946036;28;20046;-72
2023/12/26 05:52:57;;;;;;;5.05;1.77;;;8.30;99.90;;;;;;4946925;28;20497;-72
2023/12/26 05:55:23;;;;;;;4.68;1.88;;;8.30;99.90;;;;;;4949247;28;20093;-72
2023/12/26 05:57:48;;;;;;;6.45;1.67;;;8.20;99.90;;;;;;4951604;28;20054;-72
2023/12/26 06:00:15;;;;;;;6.70;3.00;;;8.20;99.90;;;;;;4950646;28;20378;-72
2023/12/26 06:02:40;;;;;;;1.73;1.15;;;8.20;99.90;;;;;;4982957;28;20327;-72
2023/12/26 06:05:07;;;;;;;4.82;2.03;;;8.10;99.90;;;;;;4949406;28;20047;-72
2023/12/26 06:07:33;;;;;;;2.20;1.15;;;8.10;99.90;;;;;;4951464;28;20096;-72
2023/12/26 06:09:59;;;;;;;2.92;0.73;;;8.00;99.90;;;;;;4967581;28;20121;-72
2023/12/26 06:12:25;;;;;;;5.40;1.83;;;8.00;99.90;;;;;;4950081;28;20049;-72
2023/12/26 06:14:51;;;;;;;11.88;1.48;;;8.00;99.90;;;;;;4967732;28;20065;-73
2023/12/26 06:17:19;;;;;;;2.95;1.75;;;8.00;99.90;;;;;;4951157;28;20489;-72
2023/12/26 06:19:45;;;;;;;0.75;0.60;;;7.90;99.90;;;;;;4950117;28;20046;-73
2023/12/26 06:22:10;;;;;;;6.40;2.28;;;7.90;99.90;;;;;;4950522;28;20105;-72
2023/12/26 06:24:36;;;;;;;15.43;1.65;;;7.90;99.90;;;;;;4950899;28;20456;-72
2023/12/26 06:27:02;;;;;;;5.60;1.77;;;7.90;99.90;;;;;;4949878;28;20042;-72
2023/12/26 06:29:27;;;;;;;3.65;1.50;;;7.90;99.90;;;;;;4950719;28;20054;-72
2023/12/26 06:31:53;;;;;;;4.40;1.95;;;7.90;99.90;;;;;;4982194;28;20065;-72
2023/12/26 06:34:19;;;;;;;4.55;1.13;;;7.90;99.90;;;;;;4950879;28;20077;-72
2023/12/26 06:36:44;;;;;;;8.45;2.85;;;7.90;99.90;;;;;;4965890;28;20058;-72
2023/12/26 06:39:12;;;;;;;6.10;1.45;;;7.90;99.90;;;;;;4949887;28;20039;-72
2023/12/26 06:41:37;;;;;;;3.42;1.52;;;8.00;99.90;;;;;;4950132;28;20524;-72
2023/12/26 06:44:03;;;;;;;6.07;2.15;;;8.00;99.90;;;;;;4950356;28;20042;-72
2023/12/26 06:46:29;;;;;;;3.53;1.48;;;7.90;99.90;;;;;;4950193;28;20451;-72
2023/12/26 06:48:54;;;;;;;4.00;1.85;;;8.00;99.90;;;;;;4966968;28;20077;-72
2023/12/26 06:51:20;;;;;;;6.28;1.55;;;8.00;99.90;;;;;;4981651;28;20086;-72
2023/12/26 06:53:47;;;;;;;10.23;2.83;;;8.00;99.90;;;;;;4950741;28;20049;-72
2023/12/26 06:56:12;;;;;;;4.38;1.48;;;8.00;99.90;;;;;;4950180;28;20054;-72
2023/12/26 06:58:38;;;;;;;4.50;2.10;;;8.00;99.90;;;;;;4965902;28;20134;-72
2023/12/26 07:01:09;;;;;;;5.05;1.52;;;7.90;99.90;;;;;;4949478;28;20256;-72
2023/12/26 07:03:34;;;;;;;2.90;1.45;;;8.00;99.90;;;;;;4947553;28;20039;-72
2023/12/26 07:06:00;;;;;;;9.23;1.98;;;7.90;99.90;;;;;;4945230;28;20653;-72
2023/12/26 07:08:25;;;;;;;4.78;2.33;;;8.00;99.90;;;;;;4974134;28;20474;-72
2023/12/26 07:10:51;;;;;;;3.30;1.23;;;8.00;99.90;;;;;;4949509;28;20497;-73
2023/12/26 07:13:17;;;;;;;6.28;2.38;;;7.90;99.90;;;;;;4950099;28;20061;-72
2023/12/26 07:15:43;;;;;;;4.10;2.92;;;7.90;99.90;;;;;;4950071;28;20418;-72
2023/12/26 07:18:09;;;;;;;4.38;1.35;;;7.90;99.90;;;;;;4966491;28;20082;-72
2023/12/26 07:20:35;;;;;;;5.45;1.60;;;7.90;99.90;;;;;;4948937;28;20047;-72
2023/12/26 07:23:00;;;;;;;4.88;0.98;;;7.90;99.90;;;;;;4981849;28;20053;-72
2023/12/26 07:25:27;;;;;;;3.03;1.50;;;7.90;99.90;;;;;;4949218;28;20393;-72
2023/12/26 07:27:52;;;;;;;3.90;2.03;;;7.90;99.90;;;;;;4966325;28;20038;-73
2023/12/26 07:30:18;;;;;;;5.70;1.52;;;7.80;99.90;;;;;;4949788;28;20107;-72
2023/12/26 07:32:44;;;;;;;6.63;1.65;;;7.80;99.90;;;;;;4966817;28;20489;-72
2023/12/26 07:35:09;;;;;;;5.55;1.50;;;7.80;99.90;;;;;;4962611;28;20057;-72
2023/12/26 07:37:35;;;;;;;4.75;1.63;;;7.80;99.90;;;;;;4949842;28;20596;-72
2023/12/26 07:40:03;;;;;;;6.50;2.33;;;7.70;99.90;;;;;;4962437;28;20493;-72
2023/12/26 07:42:29;;;;;;;3.50;1.20;;;7.70;99.90;;;;;;4960805;28;20041;-72
2023/12/26 07:44:56;;;;;;;5.97;2.65;;;7.70;99.90;;;;;;4981783;28;20058;-76
2023/12/26 07:47:21;;;;;;;3.08;1.98;;;7.70;99.90;;;;;;4998650;28;20042;-73
2023/12/26 07:49:47;;;;;;;3.08;1.70;;;7.70;99.90;;;;;;4979230;28;20133;-73
2023/12/26 07:52:13;;;;;;;3.80;1.20;;;7.80;99.90;;;;;;4977918;28;20053;-73
2023/12/26 07:54:38;;;;;;;7.95;1.55;;;7.80;99.90;;;;;;4949511;28;20039;-73
2023/12/26 07:57:04;;;;;;;3.50;2.00;;;7.70;99.90;;;;;;4965225;28;20183;-73
2023/12/26 07:59:30;;;;;;;21.45;1.70;;;7.80;99.90;;;;;;4959136;28;20039;-73
2023/12/26 08:01:56;;;;;;;3.55;1.83;;;7.80;99.90;;;;;;4941535;28;20122;-73
2023/12/26 08:04:22;;;;;;;4.32;1.58;;;7.80;99.90;;;;;;4986442;28;20051;-76
2023/12/26 08:06:48;;;;;;;4.53;1.58;;;7.80;99.90;;;;;;4991692;28;20043;-74
2023/12/26 08:09:13;;;;;;;7.32;3.30;;;7.80;99.90;;;;;;4981649;28;20062;-75
2023/12/26 08:11:39;;;;;;;12.35;1.95;;;7.80;99.90;;;;;;4972727;28;20066;-74
2023/12/26 08:14:05;;;;;;;4.28;1.80;;;7.80;99.90;;;;;;4976235;28;20035;-75
2023/12/26 08:16:31;;;;;;;4.05;1.52;;;7.80;99.90;;;;;;4950394;28;20748;-75
2023/12/26 08:18:58;;;;;;;3.70;1.42;;;7.90;99.90;;;;;;4964436;28;20065;-74
2023/12/26 08:21:24;;;;;;;6.28;1.33;;;7.90;99.90;;;;;;4962048;28;20058;-74
2023/12/26 08:23:50;;;;;;;7.00;2.03;;;7.90;99.90;;;;;;4965036;28;20038;-75
2023/12/26 08:26:15;;;;;;;6.53;2.30;;;7.90;99.90;;;;;;4984922;28;20130;-74
2023/12/26 08:28:44;;;;;;;4.53;1.70;;;8.00;99.90;;;;;;4991417;28;20043;-74
2023/12/26 08:31:10;;;;;;;6.60;1.58;;;8.00;99.90;;;;;;4948442;28;20046;-74
2023/12/26 08:33:37;;;;;;;4.53;1.48;;;8.00;99.90;;;;;;4978767;28;20511;-74
2023/12/26 08:36:03;;;;;;;3.17;1.70;;;8.00;99.90;;;;;;4944205;28;20418;-74
2023/12/26 08:38:29;;;;;;;16.38;1.45;;;8.00;99.90;;;;;;4946495;28;20053;-74
2023/12/26 08:40:55;;;;;;;9.85;1.25;;;8.00;99.90;;;;;;4974992;28;20061;-74
2023/12/26 08:43:22;;;;;;;4.40;1.27;;;8.10;99.90;;;;;;4973112;28;20176;-74
2023/12/26 08:45:48;;;;;;;3.83;1.67;;;8.00;99.90;;;;;;4972695;28;20046;-75
2023/12/26 08:48:13;;;;;;;4.07;1.30;;;8.00;99.90;;;;;;4970381;28;20058;-74
2023/12/26 08:50:39;;;;;;;1.67;1.55;;;8.00;99.90;;;;;;4971571;28;20765;-73
2023/12/26 08:53:05;;;;;;;2.90;0.85;;;8.00;99.90;;;;;;4994123;28;20047;-75
2023/12/26 08:55:30;;;;;;;4.55;1.60;;;8.00;99.90;;;;;;4968946;28;20046;-75
2023/12/26 08:57:56;;;;;;;5.80;2.30;;;8.00;99.90;;;;;;4970306;28;20047;-74
2023/12/26 09:00:22;;;;;;;7.97;2.50;;;8.00;99.90;;;;;;4965506;28;20035;-75
2023/12/26 09:02:47;;;;;;;2.45;1.33;;;8.00;99.90;;;;;;4966004;28;20288;-75
2023/12/26 09:05:13;;;;;;;6.38;1.02;;;8.00;99.90;;;;;;4940336;28;20082;-75
2023/12/26 09:07:40;;;;;;;9.48;2.47;;;8.00;99.90;;;;;;4964705;28;20126;-74
2023/12/26 09:10:06;;;;;;;4.35;1.83;;;8.10;99.90;;;;;;4960604;28;20051;-75
2023/12/26 09:12:32;;;;;;;6.90;1.05;;;8.10;99.90;;;;;;4983119;28;20042;-75
2023/12/26 09:14:57;;;;;;;6.63;2.88;;;8.10;99.90;;;;;;4964749;28;20038;-75
2023/12/26 09:17:23;;;;;;;7.03;2.03;;;8.10;99.90;;;;;;4996862;28;20055;-75
2023/12/26 09:19:49;;;;;;;4.88;1.15;;;8.10;99.90;;;;;;4959895;28;20142;-75
2023/12/26 09:22:15;;;;;;;6.68;1.27;;;8.10;99.90;;;;;;4965367;28;20129;-75
2023/12/26 09:24:43;;;;;;;3.60;1.45;;;8.10;99.90;;;;;;4965784;28;20424;-75
2023/12/26 09:27:10;;;;;;;4.10;1.42;;;8.20;99.90;;;;;;4965018;28;20137;-75
2023/12/26 09:29:35;;;;;;;3.47;0.90;;;8.20;99.90;;;;;;4998640;28;20050;-75
2023/12/26 09:32:01;;;;;;;2.17;1.92;;;8.20;99.90;;;;;;4984701;28;20405;-75
2023/12/26 09:34:27;;;;;;;5.43;2.13;;;8.20;99.90;;;;;;4967855;28;20035;-75
2023/12/26 09:36:53;;;;;;;4.97;1.40;;;8.20;99.90;;;;;;4964144;28;20458;-73
2023/12/26 09:39:19;;;;;;;6.65;1.48;;;8.30;99.90;;;;;;4968673;28;20090;-74
2023/12/26 09:41:52;;;;;;;8.32;2.17;;;8.30;99.90;;;;;;4992066;28;20050;-73
2023/12/26 09:44:19;;;;;;;1.38;0.98;;;8.30;99.90;;;;;;4965794;28;20081;-73
2023/12/26 09:46:45;;;;;;;6.78;1.17;;;8.30;99.90;;;;;;4980487;28;20042;-73
2023/12/26 09:49:11;;;;;;;3.90;1.30;;;8.40;99.90;;;;;;4977789;28;20097;-73
2023/12/26 09:51:43;;;;;;;3.92;1.95;;;8.40;99.90;;;;;;4969161;28;20078;-72
2023/12/26 09:54:10;;;;;;;8.20;2.40;;;8.40;99.90;;;;;;4968210;28;20042;-73
2023/12/26 09:56:42;;;;;;;6.78;1.30;;;8.40;99.90;;;;;;4971105;28;20352;-73
2023/12/26 09:59:09;;;;;;;8.10;2.67;;;8.40;99.90;;;;;;4968487;28;20047;-73
2023/12/26 10:01:35;;;;;;;3.28;1.20;;;8.40;99.90;;;;;;4968674;28;20484;-76
2023/12/26 10:04:03;;;;;;;7.40;1.45;;;8.40;99.90;;;;;;4968758;28;20042;-75
2023/12/26 10:06:29;;;;;;;6.35;2.08;;;8.40;99.90;;;;;;4976554;28;20050;-76
2023/12/26 10:08:54;;;;;;;6.55;2.25;;;8.40;99.90;;;;;;4943354;28;20059;-75
2023/12/26 10:11:21;;;;;;;5.50;1.70;;;8.40;99.90;;;;;;4951442;28;20082;-76
2023/12/26 10:13:53;;;;;;;4.97;1.65;;;8.40;99.90;;;;;;4988095;28;20706;-75
2023/12/26 10:16:19;;;;;;;1.55;1.40;;;8.40;99.90;;;;;;4968276;28;20066;-75
2023/12/26 10:18:45;;;;;;;7.72;2.00;;;8.50;99.90;;;;;;4969048;28;20050;-75
2023/12/26 10:21:11;;;;;;;8.13;1.55;;;8.50;99.90;;;;;;4966701;28;20632;-75
2023/12/26 10:23:37;;;;;;;8.60;2.03;;;8.50;99.90;;;;;;4958494;28;20047;-75
2023/12/26 10:26:03;;;;;;;1.77;1.63;;;8.50;99.90;;;;;;4959205;28;20379;-75
2023/12/26 10:28:30;;;;;;;2.28;1.13;;;8.50;99.90;;;;;;4967718;28;20053;-75
2023/12/26 10:30:56;;;;;;;13.40;1.77;;;8.50;99.90;;;;;;4982331;28;20250;-77
2023/12/26 10:33:28;;;;;;;4.53;2.78;;;8.50;99.90;;;;;;4955436;28;20074;-77
2023/12/26 10:36:07;;;;;;;4.57;1.70;;;8.50;99.90;;;;;;4965325;28;20114;-77
2023/12/26 10:38:34;;;;;;;3.78;1.05;;;8.50;99.90;;;;;;4967995;28;20409;-81
2023/12/26 10:41:03;;;;;;;3.25;1.23;;;8.60;99.90;;;;;;4981877;28;20039;-76
2023/12/26 10:43:29;;;;;;;3.67;1.02;;;8.60;99.90;;;;;;4951463;28;20105;-77
2023/12/26 10:45:58;;;;;;;3.25;1.02;;;8.60;99.90;;;;;;4954271;28;20513;-77
2023/12/26 10:48:27;;;;;;;8.50;2.00;;;8.60;99.90;;;;;;4959375;28;20035;-77
2023/12/26 10:50:57;;;;;;;3.90;1.20;;;8.60;99.90;;;;;;4966582;28;20051;-77
2023/12/26 10:53:37;;;;;;;6.97;1.40;;;8.60;99.90;;;;;;4967560;28;20039;-79
2023/12/26 10:56:05;;;;;;;2.78;1.27;;;8.60;99.90;;;;;;4951834;28;20081;-78
2023/12/26 10:58:32;;;;;;;1.98;1.40;;;8.60;99.90;;;;;;4968140;28;20047;-76
2023/12/26 13:52:45;;;;;;;0.52;0.30;;;8.10;99.90;;;;;;4980128;28;20463;-77
2023/12/26 13:55:10;;;;;;;1.33;0.50;;;8.10;99.90;;;;;;4963687;28;20253;-76
2023/12/26 13:57:36;;;;;;;0.43;0.32;;;8.10;99.90;;;;;;4978621;28;20035;-76
2023/12/26 14:00:02;;;;;;;0.88;0.70;;;8.10;99.90;;;;;;4963886;28;20102;-77
2023/12/26 14:02:28;;;;;;;1.00;0.32;;;8.20;99.90;;;;;;4947033;28;20955;-77
2023/12/26 14:04:54;;;;;;;0.55;0.50;;;8.20;99.90;;;;;;4977938;28;20053;-77
2023/12/26 14:07:21;;;;;;;0.63;0.20;;;8.20;99.90;;;;;;4962746;28;20518;-77
2023/12/26 14:10:24;;;;;;;1.33;0.90;;;8.20;99.90;;;;;;4979199;28;20565;-76
2023/12/26 14:13:27;;;;;;;2.22;0.90;;;8.10;99.90;;;;;;4962471;28;20560;-77
2023/12/26 14:16:31;;;;;;;0.60;0.50;;;8.10;99.90;;;;;;4963750;28;20050;-77
2023/12/26 14:19:34;;;;;;;0.85;0.47;;;8.00;99.90;;;;;;4948807;28;20545;-77
2023/12/26 14:22:37;;;;;;;0.15;0.15;;;8.00;99.90;;;;;;4949673;28;20066;-76
2023/12/26 14:25:41;;;;;;;0.43;0.30;;;7.90;99.90;;;;;;4949761;28;20058;-76
2023/12/26 14:28:44;;;;;;;5.78;1.17;;;7.90;99.90;;;;;;4949613;28;20057;-77
2023/12/26 14:31:47;;;;;;;1.00;0.40;;;7.90;99.90;;;;;;4949448;28;20108;-77
2023/12/26 14:34:50;;;;;;;4.13;1.20;;;7.80;99.90;;;;;;4948730;28;20051;-77
2023/12/26 14:37:53;;;;;;;1.48;0.50;;;7.80;99.90;;;;;;4949826;28;20497;-76
2023/12/26 14:40:58;;;;;;;0.43;0.43;;;7.80;99.90;;;;;;4949858;28;20055;-76
2023/12/26 14:44:01;;;;;;;1.67;0.77;;;7.80;99.90;;;;;;4950210;28;20062;-76
2023/12/26 14:46:45;;;;;;;;;;;7.80;99.90;;;;;;4966125;28;20138;-76
2023/12/26 14:49:48;;;;;;;4.65;1.27;;;7.80;99.90;;;;;;4980728;28;19926;-76
2023/12/26 14:52:51;;;;;;;3.97;0.95;;;7.70;99.90;;;;;;4964852;28;20042;-77
2023/12/26 14:55:36;;;;;;;;;;;7.70;99.90;;;;;;4950268;28;20188;-77
2023/12/26 14:58:39;;;;;;;0.88;0.50;;;7.70;99.90;;;;;;4965579;28;20266;-77
2023/12/26 15:01:42;;;;;;;1.65;1.15;;;7.60;99.90;;;;;;4949282;28;20116;-76
2023/12/26 15:04:09;;;;;;;4.78;0.60;;;7.50;99.90;;;;;;4980421;28;20105;-76
2023/12/26 15:06:35;;;;;;;1.35;0.47;;;7.50;99.90;;;;;;4949218;28;20047;-76
2023/12/26 15:09:00;;;;;;;1.83;0.63;;;7.40;99.90;;;;;;4949112;28;20062;-76
2023/12/26 15:11:26;;;;;;;1.55;0.20;;;7.40;99.90;;;;;;4949498;28;20113;-76
2023/12/26 15:13:52;;;;;;;2.10;1.20;;;7.40;99.90;;;;;;4965079;28;20047;-77
2023/12/26 15:16:19;;;;;;;2.80;0.52;;;7.30;99.90;;;;;;4949402;28;20042;-76
2023/12/26 15:18:45;;;;;;;3.90;0.55;;;7.30;99.90;;;;;;4948824;28;20400;-77
2023/12/26 15:21:11;;;;;;;1.13;0.35;;;7.30;99.90;;;;;;4981584;28;20133;-76
2023/12/26 15:23:36;;;;;;;2.05;1.42;;;7.20;99.90;;;;;;4981002;28;20332;-77
2023/12/26 15:26:02;;;;;;;1.98;0.60;;;7.20;99.90;;;;;;4948746;28;20038;-77
2023/12/26 15:28:28;;;;;;;2.13;0.77;;;7.20;99.90;;;;;;4981177;28;20515;-77
2023/12/26 15:30:53;;;;;;;1.75;0.40;;;7.20;99.90;;;;;;4948038;28;20051;-76
2023/12/26 15:33:19;;;;;;;3.83;0.73;;;7.20;99.90;;;;;;4964459;28;20401;-76
2023/12/26 15:35:45;;;;;;;2.22;1.02;;;7.10;99.90;;;;;;4964758;28;20233;-76
2023/12/26 15:38:11;;;;;;;2.97;0.95;;;7.10;99.90;;;;;;4966079;28;20085;-77
2023/12/26 15:40:37;;;;;;;1.13;0.80;;;7.10;99.90;;;;;;4980750;28;20521;-76
2023/12/26 15:43:03;;;;;;;2.47;0.80;;;7.20;99.90;;;;;;4948182;28;20059;-76
2023/12/26 15:45:28;;;;;;;3.58;0.90;;;7.20;99.90;;;;;;4981233;28;20047;-76
2023/12/26 15:47:55;;;;;;;2.03;1.17;;;7.20;99.90;;;;;;4947736;28;20145;-76
2023/12/26 15:50:21;;;;;;;3.53;1.48;;;7.20;99.90;;;;;;4979801;28;20125;-76
2023/12/26 15:52:48;;;;;;;4.00;1.30;;;7.20;99.90;;;;;;4981381;28;20433;-76
2023/12/26 15:55:15;;;;;;;4.30;1.35;;;7.20;99.90;;;;;;4931680;28;20051;-76
2023/12/26 15:57:41;;;;;;;1.65;0.70;;;7.20;99.90;;;;;;4965521;28;20526;-76